createdAt,value
2023-06-13T00:02:13.383Z,5.80
2023-06-13T00:05:09.193Z,5.70
2023-06-13T00:08:03.614Z,5.60
2023-06-13T00:10:57.508Z,5.50
2023-06-13T00:13:51.815Z,4.80
2023-06-13T00:16:48.269Z,5.40
2023-06-13T00:19:43.735Z,5.30
2023-06-13T00:22:38.090Z,5.30
2023-06-13T00:25:32.220Z,5.10
2023-06-13T00:28:26.681Z,4.00
2023-06-13T00:31:21.008Z,7.10
2023-06-13T00:34:15.288Z,5.80
2023-06-13T00:37:14.334Z,6.00
2023-06-13T00:40:10.367Z,5.30
2023-06-13T00:43:05.197Z,5.80
2023-06-13T00:46:05.202Z,5.30
2023-06-13T00:48:59.814Z,5.90
2023-06-13T00:51:54.109Z,5.60
2023-06-13T00:54:47.855Z,7.00
2023-06-13T00:57:42.488Z,6.80
2023-06-13T01:00:37.469Z,6.40
2023-06-13T01:03:34.406Z,5.50
2023-06-13T01:06:29.832Z,6.30
2023-06-13T01:09:24.248Z,8.40
2023-06-13T01:12:28.740Z,7.40
2023-06-13T01:15:26.680Z,6.70
2023-06-13T01:18:24.184Z,5.90
2023-06-13T01:21:18.903Z,7.40
2023-06-13T01:24:25.116Z,10.50
2023-06-13T01:27:20.919Z,9.10
2023-06-13T01:30:16.360Z,6.10
2023-06-13T01:33:12.086Z,6.70
2023-06-13T01:36:06.552Z,7.20
2023-06-13T01:39:00.639Z,7.10
2023-06-13T01:41:54.677Z,5.80
2023-06-13T01:44:48.715Z,8.10
2023-06-13T01:47:49.142Z,6.40
2023-06-13T01:50:50.568Z,6.30
2023-06-13T01:53:52.776Z,6.90
2023-06-13T01:56:50.628Z,7.10
2023-06-13T01:59:47.508Z,7.10
2023-06-13T02:02:43.772Z,6.00
2023-06-13T02:05:38.253Z,5.80
2023-06-13T02:08:33.572Z,6.40
2023-06-13T02:11:28.005Z,4.80
2023-06-13T02:14:22.502Z,6.60
2023-06-13T02:17:17.229Z,6.70
2023-06-13T02:20:15.376Z,5.80
2023-06-13T02:23:19.979Z,4.70
2023-06-13T02:26:14.606Z,5.70
2023-06-13T02:29:09.327Z,8.60
2023-06-13T02:32:03.432Z,10.00
2023-06-13T02:34:57.440Z,6.20
2023-06-13T02:37:51.862Z,5.80
2023-06-13T02:40:46.092Z,5.90
2023-06-13T02:43:40.430Z,7.90
2023-06-13T02:46:34.228Z,6.80
2023-06-13T02:49:28.303Z,8.10
2023-06-13T02:52:23.012Z,5.70
2023-06-13T02:55:19.124Z,7.40
2023-06-13T02:58:13.199Z,5.90
2023-06-13T03:01:07.827Z,7.50
2023-06-13T03:04:02.178Z,9.10
2023-06-13T03:06:56.162Z,5.60
2023-06-13T03:09:50.304Z,7.60
2023-06-13T03:12:45.087Z,7.10
2023-06-13T03:15:39.343Z,7.70
2023-06-13T03:18:33.523Z,6.00
2023-06-13T03:21:27.503Z,6.90
2023-06-13T03:24:22.469Z,4.80
2023-06-13T03:27:16.722Z,7.50
2023-06-13T03:30:14.301Z,6.50
2023-06-13T03:33:08.738Z,9.90
2023-06-13T03:36:03.604Z,6.40
2023-06-13T03:38:57.685Z,9.60
2023-06-13T03:41:51.747Z,6.40
2023-06-13T03:44:48.315Z,9.40
2023-06-13T03:47:43.270Z,6.60
2023-06-13T03:50:24.444Z,8.60
2023-06-13T03:53:19.192Z,5.80
2023-06-13T03:56:13.389Z,7.80
2023-06-13T03:59:07.372Z,5.00
2023-06-13T04:02:01.255Z,8.50
2023-06-13T04:04:57.590Z,6.60
2023-06-13T04:07:56.035Z,5.70
2023-06-13T04:10:50.108Z,5.00
2023-06-13T04:13:43.814Z,6.10
2023-06-13T04:16:37.944Z,5.70
2023-06-13T04:19:32.911Z,7.30
2023-06-13T04:22:27.002Z,8.40
2023-06-13T04:25:21.088Z,7.00
2023-06-13T04:28:15.437Z,6.20
2023-06-13T04:31:09.694Z,9.70
2023-06-13T04:34:04.938Z,8.30
2023-06-13T04:36:59.134Z,10.80
2023-06-13T04:39:53.682Z,8.40
2023-06-13T04:42:52.517Z,8.90
2023-06-13T04:45:47.772Z,6.80
2023-06-13T04:48:43.407Z,9.90
2023-06-13T04:51:37.717Z,6.40
2023-06-13T04:54:32.324Z,7.40
2023-06-13T04:57:26.462Z,10.50
2023-06-13T05:00:23.385Z,10.80
2023-06-13T05:03:18.694Z,11.90
2023-06-13T05:05:57.968Z,9.40
2023-06-13T05:08:53.647Z,7.90
2023-06-13T05:11:47.654Z,9.50
2023-06-13T05:14:42.130Z,7.50
2023-06-13T05:17:38.605Z,6.90
2023-06-13T05:20:27.441Z,9.00
2023-06-13T05:23:22.064Z,10.90
2023-06-13T05:26:16.268Z,8.10
2023-06-13T05:29:10.938Z,8.60
2023-06-13T05:32:05.374Z,5.30
2023-06-13T05:34:59.324Z,10.70
2023-06-13T05:37:54.691Z,6.90
2023-06-13T05:40:48.760Z,6.60
2023-06-13T05:44:05.188Z,4.50
2023-06-13T05:47:19.113Z,4.50
2023-06-13T05:52:29.541Z,5.50
2023-06-13T05:55:23.776Z,5.20
2023-06-13T05:58:17.540Z,6.60
2023-06-13T06:01:12.238Z,6.20
2023-06-13T06:04:06.444Z,7.50
2023-06-13T06:07:01.124Z,7.70
2023-06-13T06:09:54.927Z,6.90
2023-06-13T06:12:49.168Z,6.80
2023-06-13T06:15:43.099Z,6.40
2023-06-13T06:18:37.458Z,7.90
2023-06-13T06:21:31.894Z,7.00
2023-06-13T06:24:26.097Z,6.60
2023-06-13T06:27:20.436Z,8.20
2023-06-13T06:30:17.316Z,8.20
2023-06-13T06:33:11.811Z,8.60
2023-06-13T06:36:06.222Z,11.80
2023-06-13T06:39:00.793Z,8.20
2023-06-13T06:41:54.973Z,12.40
2023-06-13T06:44:50.017Z,8.60
2023-06-13T06:47:34.369Z,7.90
2023-06-13T06:50:28.415Z,7.50
2023-06-13T06:53:22.407Z,9.10
2023-06-13T06:56:16.579Z,9.50
2023-06-13T06:59:12.221Z,5.90
2023-06-13T07:02:06.809Z,9.90
2023-06-13T07:05:21.592Z,4.90
2023-06-13T07:08:15.573Z,8.70
2023-06-13T07:11:09.656Z,4.40
2023-06-13T07:14:03.536Z,3.90
2023-06-13T07:16:57.872Z,6.30
2023-06-13T07:20:14.262Z,4.50
2023-06-13T07:23:09.402Z,4.30
2023-06-13T07:26:03.920Z,4.00
2023-06-13T07:28:58.028Z,4.00
2023-06-13T07:31:53.416Z,5.00
2023-06-13T07:35:04.115Z,4.40
2023-06-13T07:38:02.016Z,4.30
2023-06-13T07:40:56.736Z,7.80
2023-06-13T07:43:51.276Z,4.40
2023-06-13T07:46:45.684Z,6.20
2023-06-13T07:49:45.383Z,5.10
2023-06-13T07:52:40.584Z,6.10
2023-06-13T07:55:34.777Z,8.10
2023-06-13T07:58:29.196Z,4.60
2023-06-13T08:01:24.014Z,4.30
2023-06-13T08:04:18.348Z,3.50
2023-06-13T08:07:13.012Z,4.60
2023-06-13T08:10:07.969Z,7.30
2023-06-13T08:13:02.120Z,6.20
2023-06-13T08:15:56.150Z,5.10
2023-06-13T08:18:53.177Z,5.20
2023-06-13T08:21:48.329Z,4.20
2023-06-13T08:24:42.573Z,4.60
2023-06-13T08:27:38.259Z,4.70
2023-06-13T08:30:32.755Z,4.10
2023-06-13T08:33:27.354Z,5.10
2023-06-13T08:36:31.832Z,5.10
2023-06-13T08:39:26.433Z,3.10
2023-06-13T08:42:23.952Z,4.30
2023-06-13T08:45:19.246Z,4.80
2023-06-13T08:48:14.752Z,5.40
2023-06-13T08:51:15.172Z,4.00
2023-06-13T08:54:11.814Z,4.50
2023-06-13T08:57:09.379Z,5.00
2023-06-13T09:00:05.257Z,5.10
2023-06-13T09:03:02.033Z,4.50
2023-06-13T09:05:56.759Z,4.40
2023-06-13T09:08:52.264Z,5.00
2023-06-13T09:11:49.218Z,5.30
2023-06-13T09:14:46.224Z,6.30
2023-06-13T09:17:40.761Z,6.40
2023-06-13T09:20:28.286Z,6.40
2023-06-13T09:23:23.050Z,3.60
2023-06-13T09:26:17.921Z,4.40
2023-06-13T09:29:26.641Z,3.40
2023-06-13T09:32:27.263Z,4.50
2023-06-13T09:38:38.343Z,3.80
2023-06-13T09:41:33.162Z,5.30
2023-06-13T09:44:28.271Z,4.80
2023-06-13T09:47:28.741Z,5.10
2023-06-13T09:50:23.911Z,5.40
2023-06-13T09:53:18.253Z,4.70
2023-06-13T09:56:13.855Z,4.60
2023-06-13T09:59:08.300Z,5.60
2023-06-13T10:02:03.602Z,3.10
2023-06-13T10:04:58.868Z,4.80
2023-06-13T10:07:53.615Z,9.80
2023-06-13T10:10:47.669Z,4.70
2023-06-13T10:13:52.980Z,5.00
2023-06-13T10:17:07.612Z,3.60
2023-06-13T10:20:07.686Z,4.80
2023-06-13T10:23:03.903Z,5.10
2023-06-13T10:26:05.783Z,5.60
2023-06-13T10:29:46.066Z,3.80
2023-06-13T10:33:38.244Z,4.20
2023-06-13T10:37:19.495Z,6.70
2023-06-13T10:40:40.871Z,4.50
2023-06-13T10:43:37.443Z,6.10
2023-06-13T10:46:33.926Z,7.60
2023-06-13T10:49:52.021Z,4.10
2023-06-13T10:53:01.035Z,4.20
2023-06-13T10:56:07.904Z,6.20
2023-06-13T11:03:24.070Z,5.60
2023-06-13T11:11:00.235Z,4.30
2023-06-13T11:14:08.962Z,6.10
2023-06-13T11:17:27.279Z,6.40
2023-06-13T11:20:45.267Z,5.60
2023-06-13T11:24:04.692Z,4.10
2023-06-13T11:27:09.660Z,3.20
2023-06-13T11:30:40.593Z,4.10
2023-06-13T11:33:32.130Z,4.10
2023-06-13T11:36:35.786Z,4.90
2023-06-13T11:43:22.140Z,3.70
2023-06-13T11:46:30.968Z,4.40
2023-06-13T11:49:40.538Z,5.00
2023-06-13T11:52:35.022Z,4.10
2023-06-13T11:55:32.561Z,4.00
2023-06-13T11:58:38.952Z,3.50
2023-06-13T12:01:33.283Z,4.20
2023-06-13T12:04:28.512Z,3.50
2023-06-13T12:07:23.106Z,7.90
2023-06-13T12:10:18.477Z,6.10
2023-06-13T12:13:16.676Z,4.30
2023-06-13T12:16:10.993Z,4.30
2023-06-13T12:19:07.312Z,3.90
2023-06-13T12:22:07.115Z,3.20
2023-06-13T12:25:03.779Z,9.20
2023-06-13T12:27:58.538Z,3.70
2023-06-13T12:30:56.259Z,4.10
2023-06-13T12:36:45.927Z,5.50
2023-06-13T12:40:00.560Z,5.30
2023-06-13T12:42:57.191Z,3.40
2023-06-13T12:45:51.219Z,4.40
2023-06-13T12:48:47.517Z,3.10
2023-06-13T12:51:46.348Z,3.50
2023-06-13T12:54:40.946Z,5.10
2023-06-13T12:57:52.611Z,5.10
2023-06-13T13:00:54.480Z,5.20
2023-06-13T13:03:48.865Z,2.90
2023-06-13T13:07:24.575Z,3.00
2023-06-13T13:10:19.254Z,4.30
2023-06-13T13:13:13.867Z,4.80
2023-06-13T13:16:07.908Z,3.60
2023-06-13T13:19:02.259Z,4.00
2023-06-13T13:21:58.220Z,5.90
2023-06-13T13:24:52.213Z,6.50
2023-06-13T13:27:48.172Z,6.70
2023-06-13T13:30:56.274Z,7.50
2023-06-13T13:37:08.256Z,6.40
2023-06-13T13:40:02.222Z,5.70
2023-06-13T13:42:58.095Z,5.10
2023-06-13T13:45:52.332Z,4.70
2023-06-13T13:48:46.815Z,3.20
2023-06-13T13:51:41.213Z,8.30
2023-06-13T13:54:35.703Z,6.30
2023-06-13T13:57:29.747Z,3.30
2023-06-13T14:00:27.331Z,4.50
2023-06-13T14:03:21.743Z,4.00
2023-06-13T14:06:16.606Z,6.40
2023-06-13T14:09:14.151Z,3.30
2023-06-13T14:12:11.709Z,9.30
2023-06-13T14:15:06.477Z,38.40
2023-06-13T14:18:01.338Z,135.30
2023-06-13T14:20:55.964Z,107.60
2023-06-13T14:23:49.797Z,87.20
2023-06-13T14:26:44.074Z,63.90
2023-06-13T14:29:38.350Z,39.70
2023-06-13T14:32:32.516Z,32.20
2023-06-13T14:35:26.927Z,28.40
2023-06-13T14:38:21.413Z,22.30
2023-06-13T14:41:16.564Z,14.80
2023-06-13T14:44:10.812Z,18.10
2023-06-13T14:47:05.455Z,14.30
2023-06-13T14:49:59.503Z,17.40
2023-06-13T14:52:53.383Z,14.00
2023-06-13T14:55:48.012Z,11.90
2023-06-13T14:58:42.334Z,8.10
2023-06-13T15:01:37.482Z,10.90
2023-06-13T15:04:31.528Z,8.90
2023-06-13T15:07:25.589Z,11.50
2023-06-13T15:10:20.780Z,7.80
2023-06-13T15:13:17.151Z,6.90
2023-06-13T15:16:13.053Z,7.40
2023-06-13T15:19:07.493Z,6.00
2023-06-13T15:22:04.614Z,7.80
2023-06-13T15:24:58.912Z,11.90
2023-06-13T15:27:53.123Z,5.90
2023-06-13T15:30:47.155Z,6.20
2023-06-13T15:33:41.552Z,4.60
2023-06-13T15:36:36.086Z,9.10
2023-06-13T15:39:30.635Z,6.30
2023-06-13T15:42:24.667Z,7.80
2023-06-13T15:45:19.096Z,5.30
2023-06-13T15:48:13.056Z,4.60
2023-06-13T15:51:07.247Z,4.20
2023-06-13T15:54:01.510Z,3.80
2023-06-13T15:56:56.601Z,3.50
2023-06-13T15:59:50.691Z,5.50
2023-06-13T16:02:46.647Z,4.00
2023-06-13T16:05:40.952Z,5.90
2023-06-13T16:08:35.292Z,4.00
2023-06-13T16:11:31.168Z,2.80
2023-06-13T16:14:25.192Z,3.50
2023-06-13T16:17:20.133Z,4.70
2023-06-13T16:20:14.761Z,3.20
2023-06-13T16:23:09.206Z,3.10
2023-06-13T16:26:03.466Z,4.00
2023-06-13T16:28:58.365Z,3.10
2023-06-13T16:31:53.140Z,3.50
2023-06-13T16:34:47.836Z,3.40
2023-06-13T16:37:42.585Z,4.40
2023-06-13T16:40:37.442Z,3.40
2023-06-13T16:43:58.596Z,3.90
2023-06-13T16:47:18.031Z,2.90
2023-06-13T16:50:09.511Z,2.90
2023-06-13T16:53:04.253Z,3.20
2023-06-13T16:55:58.831Z,3.40
2023-06-13T16:58:53.228Z,3.40
2023-06-13T17:01:47.601Z,3.00
2023-06-13T17:04:42.302Z,2.80
2023-06-13T17:07:36.590Z,2.90
2023-06-13T17:10:30.773Z,2.70
2023-06-13T17:13:25.873Z,2.50
2023-06-13T17:16:20.214Z,3.50
2023-06-13T17:19:17.470Z,2.90
2023-06-13T17:22:11.992Z,3.30
2023-06-13T17:25:07.730Z,4.10
2023-06-13T17:28:55.144Z,4.10
2023-06-13T17:31:49.766Z,3.40
2023-06-13T17:34:44.956Z,3.30
2023-06-13T17:37:39.953Z,4.30
2023-06-13T17:40:35.084Z,4.30
2023-06-13T17:43:29.386Z,4.00
2023-06-13T17:46:24.930Z,4.00
2023-06-13T17:49:19.369Z,3.20
2023-06-13T17:51:56.545Z,5.10
2023-06-13T17:54:51.457Z,3.20
2023-06-13T17:57:46.967Z,3.80
2023-06-13T18:00:41.644Z,4.00
2023-06-13T18:03:39.361Z,7.40
2023-06-13T18:06:33.917Z,5.20
2023-06-13T18:09:28.560Z,3.90
2023-06-13T18:12:22.900Z,4.30
2023-06-13T18:15:19.685Z,5.00
2023-06-13T18:18:14.434Z,4.80
2023-06-13T18:21:09.166Z,3.70
2023-06-13T18:24:03.708Z,4.30
2023-06-13T18:26:58.927Z,17.30
2023-06-13T18:29:53.976Z,6.50
2023-06-13T18:32:48.903Z,5.50
2023-06-13T18:35:43.823Z,3.20
2023-06-13T18:38:40.988Z,8.10
2023-06-13T18:41:35.590Z,9.70
2023-06-13T18:44:31.331Z,5.50
2023-06-13T18:47:26.470Z,6.10
2023-06-13T18:50:45.643Z,6.30
2023-06-13T18:53:33.972Z,6.20
2023-06-13T18:56:40.654Z,7.10
2023-06-13T18:59:37.421Z,6.60
2023-06-13T19:02:35.917Z,5.60
2023-06-13T19:08:23.675Z,5.80
2023-06-13T19:11:16.341Z,5.90
2023-06-13T19:14:12.935Z,4.20
2023-06-13T19:17:08.742Z,4.70
2023-06-13T19:20:08.135Z,3.60
2023-06-13T19:23:10.157Z,4.60
2023-06-13T19:26:28.603Z,5.90
2023-06-13T19:29:46.796Z,4.50
2023-06-13T19:34:24.549Z,4.10
2023-06-13T19:37:18.707Z,3.10
2023-06-13T19:40:17.080Z,4.70
2023-06-13T19:43:11.842Z,4.50
2023-06-13T19:46:07.389Z,4.80
2023-06-13T19:49:02.271Z,6.90
2023-06-13T19:51:59.380Z,7.30
2023-06-13T19:54:54.384Z,8.70
2023-06-13T19:57:55.754Z,7.60
2023-06-13T20:00:51.083Z,6.30
2023-06-13T20:03:47.139Z,9.40
2023-06-13T20:06:42.484Z,8.30
2023-06-13T20:09:37.629Z,8.10
2023-06-13T20:12:32.541Z,7.10
2023-06-13T20:15:29.582Z,9.60
2023-06-13T20:18:24.427Z,7.60
2023-06-13T20:21:21.479Z,8.30
2023-06-13T20:24:16.541Z,9.00
2023-06-13T20:27:11.706Z,9.00
2023-06-13T20:30:09.465Z,8.60
2023-06-13T20:33:04.722Z,8.40
2023-06-13T20:36:00.959Z,8.60
2023-06-13T20:38:56.191Z,8.70
2023-06-13T20:41:55.060Z,8.30
2023-06-13T20:44:59.781Z,9.50
2023-06-13T20:47:57.643Z,7.50
2023-06-13T20:50:52.594Z,7.00
2023-06-13T20:53:47.005Z,7.50
2023-06-13T20:56:41.881Z,8.90
2023-06-13T20:59:36.400Z,8.80
2023-06-13T21:02:31.293Z,8.10
2023-06-13T21:05:27.186Z,9.40
2023-06-13T21:08:22.063Z,7.20
2023-06-13T21:11:16.214Z,7.90
2023-06-13T21:14:10.527Z,6.20
2023-06-13T21:17:04.734Z,7.30
2023-06-13T21:19:59.966Z,7.20
2023-06-13T21:22:55.649Z,8.90
2023-06-13T21:25:50.111Z,8.30
2023-06-13T21:28:45.185Z,6.70
2023-06-13T21:31:28.731Z,8.20
2023-06-13T21:34:22.533Z,6.30
2023-06-13T21:37:16.968Z,5.50
2023-06-13T21:40:14.272Z,6.50
2023-06-13T21:43:09.751Z,6.60
2023-06-13T21:46:03.981Z,9.00
2023-06-13T21:48:58.627Z,7.50
2023-06-13T21:51:52.840Z,9.90
2023-06-13T21:54:47.623Z,8.40
2023-06-13T21:57:42.763Z,7.70
2023-06-13T22:00:38.329Z,6.20
2023-06-13T22:03:32.384Z,7.00
2023-06-13T22:06:28.668Z,7.90
2023-06-13T22:09:22.612Z,7.90
2023-06-13T22:12:16.666Z,6.00
2023-06-13T22:15:12.655Z,6.40
2023-06-13T22:18:07.556Z,7.70
2023-06-13T22:21:01.935Z,7.60
2023-06-13T22:23:55.967Z,7.30
2023-06-13T22:26:50.006Z,6.70
2023-06-13T22:29:46.892Z,6.70
2023-06-13T22:32:41.053Z,6.10
2023-06-13T22:35:35.264Z,5.70
2023-06-13T22:38:29.052Z,6.10
2023-06-13T22:41:23.334Z,8.00
2023-06-13T22:44:17.093Z,6.60
2023-06-13T22:47:14.026Z,7.90
2023-06-13T22:50:10.234Z,7.20
2023-06-13T22:56:32.208Z,6.50
2023-06-13T22:59:26.527Z,6.30
2023-06-13T23:02:21.216Z,6.70
2023-06-13T23:05:15.204Z,6.60
2023-06-13T23:08:09.577Z,6.50
2023-06-13T23:11:03.420Z,6.60
2023-06-13T23:13:57.719Z,6.30
2023-06-13T23:16:51.892Z,9.60
2023-06-13T23:19:54.789Z,9.60
2023-06-13T23:22:49.828Z,7.30
2023-06-13T23:25:44.519Z,8.20
2023-06-13T23:28:38.986Z,7.80
2023-06-13T23:31:38.872Z,7.50
2023-06-13T23:34:33.099Z,7.90
2023-06-13T23:37:28.280Z,8.20
2023-06-13T23:40:23.179Z,7.50
2023-06-13T23:43:19.165Z,8.70
2023-06-13T23:46:13.205Z,8.70
2023-06-13T23:49:07.580Z,8.80
2023-06-13T23:52:01.698Z,8.50
2023-06-13T23:54:55.847Z,8.20
2023-06-13T23:57:49.952Z,9.90
